Torrance, Pennsylvania
Current Conditions -  °F | °C
As of 9:45 PM on Friday 21 Nov 2014 (Local Time) from KLBE Reporting Station
Clear Clear  
Wind Chill: 18°   Ceiling: Unl
Heat Index: 18°   Visibility: 10mi
Dew Point: 10°   Wind: 0mph
Humidity: 73%   Direction: NA
Pressure: 30.48"   Gusts: NA
Location:  40.42°N, 79.22°W
Report Text: KLBE 220245Z 00000KT 10SM SKC M08/M12 A3048 RMK LAST
Loading
Personal Weather Stations






























Interactive Weather Map New forecast layout! Learn more

10-Day Weather Forecast

Advertisements
Track Severe Weather on mobile